sensor_id;sensor_type;location;lat;lon;timestamp;P1;durP1;ratioP1;P2;durP2;ratioP2
4309;SDS011;2168;53.576;9.980;2023-06-26T00:00:18;1.70;;;1.70;;
4309;SDS011;2168;53.576;9.980;2023-06-26T00:02:43;1.50;;;1.50;;
4309;SDS011;2168;53.576;9.980;2023-06-26T00:05:09;1.70;;;1.70;;
4309;SDS011;2168;53.576;9.980;2023-06-26T00:07:34;1.70;;;1.70;;
4309;SDS011;2168;53.576;9.980;2023-06-26T00:10:00;1.90;;;1.90;;
4309;SDS011;2168;53.576;9.980;2023-06-26T00:12:25;1.63;;;1.63;;
4309;SDS011;2168;53.576;9.980;2023-06-26T00:14:51;1.73;;;1.73;;
4309;SDS011;2168;53.576;9.980;2023-06-26T00:17:16;1.83;;;1.83;;
4309;SDS011;2168;53.576;9.980;2023-06-26T00:19:41;1.90;;;1.90;;
4309;SDS011;2168;53.576;9.980;2023-06-26T00:22:06;1.70;;;1.70;;
4309;SDS011;2168;53.576;9.980;2023-06-26T00:24:31;2.00;;;2.00;;
4309;SDS011;2168;53.576;9.980;2023-06-26T00:26:57;2.00;;;2.00;;
4309;SDS011;2168;53.576;9.980;2023-06-26T00:29:23;2.00;;;2.00;;
4309;SDS011;2168;53.576;9.980;2023-06-26T00:31:48;1.90;;;1.90;;
4309;SDS011;2168;53.576;9.980;2023-06-26T00:34:14;1.80;;;1.80;;
4309;SDS011;2168;53.576;9.980;2023-06-26T00:36:40;1.80;;;1.80;;
4309;SDS011;2168;53.576;9.980;2023-06-26T00:39:08;1.80;;;1.80;;
4309;SDS011;2168;53.576;9.980;2023-06-26T00:41:33;1.80;;;1.80;;
4309;SDS011;2168;53.576;9.980;2023-06-26T00:43:58;1.90;;;1.90;;
4309;SDS011;2168;53.576;9.980;2023-06-26T00:46:23;1.90;;;1.90;;
4309;SDS011;2168;53.576;9.980;2023-06-26T00:48:49;1.90;;;1.90;;
4309;SDS011;2168;53.576;9.980;2023-06-26T00:51:14;2.00;;;2.00;;
4309;SDS011;2168;53.576;9.980;2023-06-26T00:53:40;1.60;;;1.60;;
4309;SDS011;2168;53.576;9.980;2023-06-26T00:56:05;1.90;;;1.90;;
4309;SDS011;2168;53.576;9.980;2023-06-26T00:58:30;1.80;;;1.80;;
4309;SDS011;2168;53.576;9.980;2023-06-26T01:00:56;1.80;;;1.80;;
4309;SDS011;2168;53.576;9.980;2023-06-26T01:03:24;1.90;;;1.90;;
4309;SDS011;2168;53.576;9.980;2023-06-26T01:05:51;1.70;;;1.70;;
4309;SDS011;2168;53.576;9.980;2023-06-26T01:08:16;1.80;;;1.80;;
4309;SDS011;2168;53.576;9.980;2023-06-26T01:10:42;1.70;;;1.70;;
4309;SDS011;2168;53.576;9.980;2023-06-26T01:13:08;1.87;;;1.87;;
4309;SDS011;2168;53.576;9.980;2023-06-26T01:15:33;1.70;;;1.70;;
4309;SDS011;2168;53.576;9.980;2023-06-26T01:17:58;1.90;;;1.90;;
4309;SDS011;2168;53.576;9.980;2023-06-26T01:20:28;1.73;;;1.73;;
4309;SDS011;2168;53.576;9.980;2023-06-26T01:27:53;1.60;;;1.60;;
4309;SDS011;2168;53.576;9.980;2023-06-26T01:30:18;1.70;;;1.70;;
4309;SDS011;2168;53.576;9.980;2023-06-26T01:32:44;1.63;;;1.63;;
4309;SDS011;2168;53.576;9.980;2023-06-26T01:35:10;1.70;;;1.70;;
4309;SDS011;2168;53.576;9.980;2023-06-26T01:37:35;1.57;;;1.57;;
4309;SDS011;2168;53.576;9.980;2023-06-26T01:40:01;1.40;;;1.40;;
4309;SDS011;2168;53.576;9.980;2023-06-26T01:42:26;1.50;;;1.50;;
4309;SDS011;2168;53.576;9.980;2023-06-26T01:44:52;1.60;;;1.60;;
4309;SDS011;2168;53.576;9.980;2023-06-26T01:47:21;1.53;;;1.53;;
4309;SDS011;2168;53.576;9.980;2023-06-26T01:49:52;1.47;;;1.47;;
4309;SDS011;2168;53.576;9.980;2023-06-26T01:52:26;1.50;;;1.50;;
4309;SDS011;2168;53.576;9.980;2023-06-26T01:57:36;1.37;;;1.37;;
4309;SDS011;2168;53.576;9.980;2023-06-26T02:00:04;1.30;;;1.30;;
4309;SDS011;2168;53.576;9.980;2023-06-26T02:02:30;1.50;;;1.50;;
4309;SDS011;2168;53.576;9.980;2023-06-26T02:04:56;1.47;;;1.47;;
4309;SDS011;2168;53.576;9.980;2023-06-26T02:07:21;1.40;;;1.40;;
4309;SDS011;2168;53.576;9.980;2023-06-26T02:09:46;1.30;;;1.30;;
4309;SDS011;2168;53.576;9.980;2023-06-26T02:12:11;1.40;;;1.40;;
4309;SDS011;2168;53.576;9.980;2023-06-26T02:14:36;1.40;;;1.40;;
4309;SDS011;2168;53.576;9.980;2023-06-26T02:17:02;1.50;;;1.50;;
4309;SDS011;2168;53.576;9.980;2023-06-26T02:19:27;1.40;;;1.40;;
4309;SDS011;2168;53.576;9.980;2023-06-26T02:21:53;1.40;;;1.40;;
4309;SDS011;2168;53.576;9.980;2023-06-26T02:24:18;1.23;;;1.23;;
4309;SDS011;2168;53.576;9.980;2023-06-26T02:26:43;1.60;;;1.60;;
4309;SDS011;2168;53.576;9.980;2023-06-26T02:29:08;1.57;;;1.57;;
4309;SDS011;2168;53.576;9.980;2023-06-26T02:31:33;1.30;;;1.30;;
4309;SDS011;2168;53.576;9.980;2023-06-26T02:33:58;1.30;;;1.30;;
4309;SDS011;2168;53.576;9.980;2023-06-26T02:36:24;1.40;;;1.40;;
4309;SDS011;2168;53.576;9.980;2023-06-26T02:38:49;1.50;;;1.50;;
4309;SDS011;2168;53.576;9.980;2023-06-26T02:41:14;1.30;;;1.30;;
4309;SDS011;2168;53.576;9.980;2023-06-26T02:43:39;1.50;;;1.50;;
4309;SDS011;2168;53.576;9.980;2023-06-26T02:46:04;1.40;;;1.40;;
4309;SDS011;2168;53.576;9.980;2023-06-26T02:48:29;1.20;;;1.20;;
4309;SDS011;2168;53.576;9.980;2023-06-26T02:50:55;1.40;;;1.40;;
4309;SDS011;2168;53.576;9.980;2023-06-26T02:53:20;1.40;;;1.40;;
4309;SDS011;2168;53.576;9.980;2023-06-26T02:55:45;1.50;;;1.50;;
4309;SDS011;2168;53.576;9.980;2023-06-26T02:58:12;1.50;;;1.50;;
4309;SDS011;2168;53.576;9.980;2023-06-26T03:00:37;1.33;;;1.33;;
4309;SDS011;2168;53.576;9.980;2023-06-26T03:03:06;1.50;;;1.50;;
4309;SDS011;2168;53.576;9.980;2023-06-26T03:05:31;1.40;;;1.40;;
4309;SDS011;2168;53.576;9.980;2023-06-26T03:07:56;1.37;;;1.37;;
4309;SDS011;2168;53.576;9.980;2023-06-26T03:10:21;1.50;;;1.50;;
4309;SDS011;2168;53.576;9.980;2023-06-26T03:12:46;1.30;;;1.30;;
4309;SDS011;2168;53.576;9.980;2023-06-26T03:15:12;1.30;;;1.30;;
4309;SDS011;2168;53.576;9.980;2023-06-26T03:17:37;1.37;;;1.37;;
4309;SDS011;2168;53.576;9.980;2023-06-26T03:20:02;1.50;;;1.50;;
4309;SDS011;2168;53.576;9.980;2023-06-26T03:22:27;1.50;;;1.50;;
4309;SDS011;2168;53.576;9.980;2023-06-26T03:24:53;1.30;;;1.30;;
4309;SDS011;2168;53.576;9.980;2023-06-26T03:27:18;1.20;;;1.20;;
4309;SDS011;2168;53.576;9.980;2023-06-26T03:29:43;1.40;;;1.40;;
4309;SDS011;2168;53.576;9.980;2023-06-26T03:32:08;1.30;;;1.30;;
4309;SDS011;2168;53.576;9.980;2023-06-26T03:34:33;1.40;;;1.40;;
4309;SDS011;2168;53.576;9.980;2023-06-26T03:36:59;1.40;;;1.40;;
4309;SDS011;2168;53.576;9.980;2023-06-26T03:39:24;1.40;;;1.40;;
4309;SDS011;2168;53.576;9.980;2023-06-26T03:41:49;1.50;;;1.50;;
4309;SDS011;2168;53.576;9.980;2023-06-26T03:44:14;1.40;;;1.40;;
4309;SDS011;2168;53.576;9.980;2023-06-26T03:46:40;1.50;;;1.50;;
4309;SDS011;2168;53.576;9.980;2023-06-26T03:49:05;1.37;;;1.37;;
4309;SDS011;2168;53.576;9.980;2023-06-26T03:51:30;1.00;;;1.00;;
4309;SDS011;2168;53.576;9.980;2023-06-26T03:53:55;1.50;;;1.50;;
4309;SDS011;2168;53.576;9.980;2023-06-26T03:56:21;1.00;;;1.00;;
4309;SDS011;2168;53.576;9.980;2023-06-26T03:58:46;1.33;;;1.33;;
4309;SDS011;2168;53.576;9.980;2023-06-26T04:01:11;1.30;;;1.30;;
4309;SDS011;2168;53.576;9.980;2023-06-26T04:03:36;1.20;;;1.20;;
4309;SDS011;2168;53.576;9.980;2023-06-26T04:06:01;1.27;;;1.27;;
4309;SDS011;2168;53.576;9.980;2023-06-26T04:08:27;1.30;;;1.30;;
4309;SDS011;2168;53.576;9.980;2023-06-26T04:10:52;1.20;;;1.20;;
4309;SDS011;2168;53.576;9.980;2023-06-26T04:13:17;1.23;;;1.23;;
4309;SDS011;2168;53.576;9.980;2023-06-26T04:15:43;1.40;;;1.40;;
4309;SDS011;2168;53.576;9.980;2023-06-26T04:18:08;1.30;;;1.30;;
4309;SDS011;2168;53.576;9.980;2023-06-26T04:20:37;1.37;;;1.37;;
4309;SDS011;2168;53.576;9.980;2023-06-26T04:23:03;1.30;;;1.30;;
4309;SDS011;2168;53.576;9.980;2023-06-26T04:25:28;1.23;;;1.23;;
4309;SDS011;2168;53.576;9.980;2023-06-26T04:27:54;1.40;;;1.40;;
4309;SDS011;2168;53.576;9.980;2023-06-26T04:30:19;1.20;;;1.20;;
4309;SDS011;2168;53.576;9.980;2023-06-26T04:32:44;1.20;;;1.20;;
4309;SDS011;2168;53.576;9.980;2023-06-26T04:35:09;1.13;;;1.13;;
4309;SDS011;2168;53.576;9.980;2023-06-26T04:37:35;1.40;;;1.40;;
4309;SDS011;2168;53.576;9.980;2023-06-26T04:40:01;1.20;;;1.20;;
4309;SDS011;2168;53.576;9.980;2023-06-26T04:42:28;1.03;;;1.03;;
4309;SDS011;2168;53.576;9.980;2023-06-26T04:44:53;1.37;;;1.37;;
4309;SDS011;2168;53.576;9.980;2023-06-26T04:47:19;1.40;;;1.40;;
4309;SDS011;2168;53.576;9.980;2023-06-26T04:49:44;1.30;;;1.30;;
4309;SDS011;2168;53.576;9.980;2023-06-26T04:52:11;1.30;;;1.30;;
4309;SDS011;2168;53.576;9.980;2023-06-26T04:54:38;1.20;;;1.20;;
4309;SDS011;2168;53.576;9.980;2023-06-26T04:57:03;1.50;;;1.50;;
4309;SDS011;2168;53.576;9.980;2023-06-26T04:59:28;1.30;;;1.30;;
4309;SDS011;2168;53.576;9.980;2023-06-26T05:01:54;1.20;;;1.20;;
4309;SDS011;2168;53.576;9.980;2023-06-26T05:04:19;1.23;;;1.23;;
4309;SDS011;2168;53.576;9.980;2023-06-26T05:06:44;1.20;;;1.20;;
4309;SDS011;2168;53.576;9.980;2023-06-26T05:09:09;1.40;;;1.40;;
4309;SDS011;2168;53.576;9.980;2023-06-26T05:11:35;1.20;;;1.20;;
4309;SDS011;2168;53.576;9.980;2023-06-26T05:14:01;1.30;;;1.30;;
4309;SDS011;2168;53.576;9.980;2023-06-26T05:16:26;1.40;;;1.40;;
4309;SDS011;2168;53.576;9.980;2023-06-26T05:18:51;1.20;;;1.20;;
4309;SDS011;2168;53.576;9.980;2023-06-26T05:21:17;1.30;;;1.30;;
4309;SDS011;2168;53.576;9.980;2023-06-26T05:23:42;1.30;;;1.30;;
4309;SDS011;2168;53.576;9.980;2023-06-26T05:26:09;1.40;;;1.40;;
4309;SDS011;2168;53.576;9.980;2023-06-26T05:28:35;1.20;;;1.20;;
4309;SDS011;2168;53.576;9.980;2023-06-26T05:31:01;1.30;;;1.30;;
4309;SDS011;2168;53.576;9.980;2023-06-26T05:33:26;1.50;;;1.50;;
4309;SDS011;2168;53.576;9.980;2023-06-26T05:35:52;1.47;;;1.47;;
4309;SDS011;2168;53.576;9.980;2023-06-26T05:38:18;1.50;;;1.50;;
4309;SDS011;2168;53.576;9.980;2023-06-26T05:40:43;1.13;;;1.13;;
4309;SDS011;2168;53.576;9.980;2023-06-26T05:43:08;1.50;;;1.50;;
4309;SDS011;2168;53.576;9.980;2023-06-26T05:45:34;1.27;;;1.27;;
4309;SDS011;2168;53.576;9.980;2023-06-26T05:47:59;1.40;;;1.40;;
4309;SDS011;2168;53.576;9.980;2023-06-26T05:50:25;1.30;;;1.30;;
4309;SDS011;2168;53.576;9.980;2023-06-26T05:52:51;1.47;;;1.47;;
4309;SDS011;2168;53.576;9.980;2023-06-26T05:55:16;1.37;;;1.37;;
4309;SDS011;2168;53.576;9.980;2023-06-26T05:57:42;1.50;;;1.50;;
4309;SDS011;2168;53.576;9.980;2023-06-26T06:00:07;1.30;;;1.30;;
4309;SDS011;2168;53.576;9.980;2023-06-26T06:02:38;1.50;;;1.50;;
4309;SDS011;2168;53.576;9.980;2023-06-26T06:05:04;1.57;;;1.57;;
4309;SDS011;2168;53.576;9.980;2023-06-26T06:07:31;1.43;;;1.43;;
4309;SDS011;2168;53.576;9.980;2023-06-26T06:09:56;1.23;;;1.23;;
4309;SDS011;2168;53.576;9.980;2023-06-26T06:12:21;1.50;;;1.50;;
4309;SDS011;2168;53.576;9.980;2023-06-26T06:14:46;1.50;;;1.50;;
4309;SDS011;2168;53.576;9.980;2023-06-26T06:17:11;1.50;;;1.50;;
4309;SDS011;2168;53.576;9.980;2023-06-26T06:19:37;1.50;;;1.50;;
4309;SDS011;2168;53.576;9.980;2023-06-26T06:22:02;1.30;;;1.30;;
4309;SDS011;2168;53.576;9.980;2023-06-26T06:24:27;1.47;;;1.47;;
4309;SDS011;2168;53.576;9.980;2023-06-26T06:26:52;1.67;;;1.67;;
4309;SDS011;2168;53.576;9.980;2023-06-26T06:29:18;1.90;;;1.90;;
4309;SDS011;2168;53.576;9.980;2023-06-26T06:31:44;1.70;;;1.70;;
4309;SDS011;2168;53.576;9.980;2023-06-26T06:34:09;1.57;;;1.57;;
4309;SDS011;2168;53.576;9.980;2023-06-26T06:36:34;1.60;;;1.60;;
4309;SDS011;2168;53.576;9.980;2023-06-26T06:39:00;1.40;;;1.40;;
4309;SDS011;2168;53.576;9.980;2023-06-26T06:41:25;1.70;;;1.70;;
4309;SDS011;2168;53.576;9.980;2023-06-26T06:43:50;1.50;;;1.50;;
4309;SDS011;2168;53.576;9.980;2023-06-26T06:46:15;1.70;;;1.70;;
4309;SDS011;2168;53.576;9.980;2023-06-26T06:48:41;1.83;;;1.83;;
4309;SDS011;2168;53.576;9.980;2023-06-26T06:51:06;1.80;;;1.80;;
4309;SDS011;2168;53.576;9.980;2023-06-26T06:53:31;1.90;;;1.90;;
4309;SDS011;2168;53.576;9.980;2023-06-26T06:55:56;2.00;;;2.00;;
4309;SDS011;2168;53.576;9.980;2023-06-26T06:58:21;1.90;;;1.90;;
4309;SDS011;2168;53.576;9.980;2023-06-26T07:00:47;1.90;;;1.90;;
4309;SDS011;2168;53.576;9.980;2023-06-26T07:03:12;1.90;;;1.90;;
4309;SDS011;2168;53.576;9.980;2023-06-26T07:05:38;1.70;;;1.70;;
4309;SDS011;2168;53.576;9.980;2023-06-26T07:08:03;1.97;;;1.97;;
4309;SDS011;2168;53.576;9.980;2023-06-26T07:10:29;1.90;;;1.90;;
4309;SDS011;2168;53.576;9.980;2023-06-26T07:12:54;1.87;;;1.87;;
4309;SDS011;2168;53.576;9.980;2023-06-26T07:15:19;1.90;;;1.90;;
4309;SDS011;2168;53.576;9.980;2023-06-26T07:17:44;2.00;;;2.00;;
4309;SDS011;2168;53.576;9.980;2023-06-26T07:20:10;1.80;;;1.80;;
4309;SDS011;2168;53.576;9.980;2023-06-26T07:22:40;1.70;;;1.70;;
4309;SDS011;2168;53.576;9.980;2023-06-26T07:25:05;1.67;;;1.67;;
4309;SDS011;2168;53.576;9.980;2023-06-26T07:27:34;1.73;;;1.73;;
4309;SDS011;2168;53.576;9.980;2023-06-26T07:29:59;1.77;;;1.77;;
4309;SDS011;2168;53.576;9.980;2023-06-26T07:32:24;1.77;;;1.77;;
4309;SDS011;2168;53.576;9.980;2023-06-26T07:34:49;1.50;;;1.50;;
4309;SDS011;2168;53.576;9.980;2023-06-26T07:37:14;1.57;;;1.57;;
4309;SDS011;2168;53.576;9.980;2023-06-26T07:39:39;2.00;;;2.00;;
4309;SDS011;2168;53.576;9.980;2023-06-26T07:42:04;1.80;;;1.80;;
4309;SDS011;2168;53.576;9.980;2023-06-26T07:44:30;1.80;;;1.80;;
4309;SDS011;2168;53.576;9.980;2023-06-26T07:46:55;1.73;;;1.73;;
4309;SDS011;2168;53.576;9.980;2023-06-26T07:49:20;1.87;;;1.87;;
4309;SDS011;2168;53.576;9.980;2023-06-26T07:51:45;1.70;;;1.70;;
4309;SDS011;2168;53.576;9.980;2023-06-26T07:54:10;1.80;;;1.80;;
4309;SDS011;2168;53.576;9.980;2023-06-26T07:56:52;1.80;;;1.80;;
4309;SDS011;2168;53.576;9.980;2023-06-26T07:59:19;2.00;;;2.00;;
4309;SDS011;2168;53.576;9.980;2023-06-26T08:01:44;1.80;;;1.80;;
4309;SDS011;2168;53.576;9.980;2023-06-26T08:04:09;1.80;;;1.80;;
4309;SDS011;2168;53.576;9.980;2023-06-26T08:06:36;2.30;;;2.30;;
4309;SDS011;2168;53.576;9.980;2023-06-26T08:09:05;2.30;;;2.30;;
4309;SDS011;2168;53.576;9.980;2023-06-26T08:11:31;2.30;;;2.30;;
4309;SDS011;2168;53.576;9.980;2023-06-26T08:13:56;1.90;;;1.90;;
4309;SDS011;2168;53.576;9.980;2023-06-26T08:16:21;1.90;;;1.90;;
4309;SDS011;2168;53.576;9.980;2023-06-26T08:18:46;1.70;;;1.70;;
4309;SDS011;2168;53.576;9.980;2023-06-26T08:21:12;1.98;;;1.98;;
4309;SDS011;2168;53.576;9.980;2023-06-26T08:23:37;2.10;;;2.10;;
4309;SDS011;2168;53.576;9.980;2023-06-26T08:26:02;2.00;;;2.00;;
4309;SDS011;2168;53.576;9.980;2023-06-26T08:28:27;2.00;;;2.00;;
4309;SDS011;2168;53.576;9.980;2023-06-26T08:30:52;1.90;;;1.90;;
4309;SDS011;2168;53.576;9.980;2023-06-26T08:33:18;1.83;;;1.83;;
4309;SDS011;2168;53.576;9.980;2023-06-26T08:35:43;1.90;;;1.90;;
4309;SDS011;2168;53.576;9.980;2023-06-26T08:38:08;1.80;;;1.80;;
4309;SDS011;2168;53.576;9.980;2023-06-26T08:40:34;1.90;;;1.90;;
4309;SDS011;2168;53.576;9.980;2023-06-26T08:42:59;2.10;;;2.10;;
4309;SDS011;2168;53.576;9.980;2023-06-26T08:45:25;2.50;;;2.50;;
4309;SDS011;2168;53.576;9.980;2023-06-26T08:47:51;2.70;;;2.70;;
4309;SDS011;2168;53.576;9.980;2023-06-26T08:50:18;2.50;;;2.50;;
4309;SDS011;2168;53.576;9.980;2023-06-26T08:52:46;2.20;;;2.20;;
4309;SDS011;2168;53.576;9.980;2023-06-26T08:55:18;2.90;;;2.90;;
4309;SDS011;2168;53.576;9.980;2023-06-26T08:57:44;2.83;;;2.83;;
4309;SDS011;2168;53.576;9.980;2023-06-26T09:00:09;2.43;;;2.43;;
4309;SDS011;2168;53.576;9.980;2023-06-26T09:02:35;2.43;;;2.43;;
4309;SDS011;2168;53.576;9.980;2023-06-26T09:05:02;2.20;;;2.20;;
4309;SDS011;2168;53.576;9.980;2023-06-26T09:07:28;2.13;;;2.13;;
4309;SDS011;2168;53.576;9.980;2023-06-26T09:09:53;2.20;;;2.20;;
4309;SDS011;2168;53.576;9.980;2023-06-26T09:12:18;2.30;;;2.30;;
4309;SDS011;2168;53.576;9.980;2023-06-26T09:14:45;2.40;;;2.40;;
4309;SDS011;2168;53.576;9.980;2023-06-26T09:17:10;2.40;;;2.40;;
4309;SDS011;2168;53.576;9.980;2023-06-26T09:19:38;2.27;;;2.27;;
4309;SDS011;2168;53.576;9.980;2023-06-26T09:22:03;2.30;;;2.30;;
4309;SDS011;2168;53.576;9.980;2023-06-26T09:24:28;2.50;;;2.50;;
4309;SDS011;2168;53.576;9.980;2023-06-26T09:26:55;2.40;;;2.40;;
4309;SDS011;2168;53.576;9.980;2023-06-26T09:29:20;2.60;;;2.60;;
4309;SDS011;2168;53.576;9.980;2023-06-26T09:31:45;2.40;;;2.40;;
4309;SDS011;2168;53.576;9.980;2023-06-26T09:34:10;2.47;;;2.47;;
4309;SDS011;2168;53.576;9.980;2023-06-26T09:36:36;2.50;;;2.50;;
4309;SDS011;2168;53.576;9.980;2023-06-26T09:39:04;2.47;;;2.47;;
4309;SDS011;2168;53.576;9.980;2023-06-26T09:41:32;2.27;;;2.27;;
4309;SDS011;2168;53.576;9.980;2023-06-26T09:44:01;1.90;;;1.90;;
4309;SDS011;2168;53.576;9.980;2023-06-26T09:46:28;2.40;;;2.40;;
4309;SDS011;2168;53.576;9.980;2023-06-26T09:51:24;2.47;;;2.47;;
4309;SDS011;2168;53.576;9.980;2023-06-26T09:53:49;2.30;;;2.30;;
4309;SDS011;2168;53.576;9.980;2023-06-26T09:56:15;2.20;;;2.20;;
4309;SDS011;2168;53.576;9.980;2023-06-26T09:58:42;2.03;;;2.03;;
4309;SDS011;2168;53.576;9.980;2023-06-26T10:01:07;2.20;;;2.20;;
4309;SDS011;2168;53.576;9.980;2023-06-26T10:03:34;2.27;;;2.27;;
4309;SDS011;2168;53.576;9.980;2023-06-26T10:05:59;2.10;;;2.10;;
4309;SDS011;2168;53.576;9.980;2023-06-26T10:08:26;1.80;;;1.80;;
4309;SDS011;2168;53.576;9.980;2023-06-26T10:10:52;2.20;;;2.20;;
4309;SDS011;2168;53.576;9.980;2023-06-26T10:13:22;1.87;;;1.87;;
4309;SDS011;2168;53.576;9.980;2023-06-26T10:15:47;1.80;;;1.80;;
4309;SDS011;2168;53.576;9.980;2023-06-26T10:18:14;1.83;;;1.83;;
4309;SDS011;2168;53.576;9.980;2023-06-26T10:20:40;1.90;;;1.90;;
4309;SDS011;2168;53.576;9.980;2023-06-26T10:23:05;2.37;;;2.37;;
4309;SDS011;2168;53.576;9.980;2023-06-26T10:25:31;3.00;;;3.00;;
4309;SDS011;2168;53.576;9.980;2023-06-26T10:27:57;5.67;;;5.57;;
4309;SDS011;2168;53.576;9.980;2023-06-26T10:30:28;6.63;;;6.53;;
4309;SDS011;2168;53.576;9.980;2023-06-26T10:32:54;5.73;;;5.63;;
4309;SDS011;2168;53.576;9.980;2023-06-26T10:35:19;4.10;;;4.10;;
4309;SDS011;2168;53.576;9.980;2023-06-26T10:37:47;3.97;;;3.97;;
4309;SDS011;2168;53.576;9.980;2023-06-26T10:40:13;3.57;;;3.57;;
4309;SDS011;2168;53.576;9.980;2023-06-26T10:42:39;2.97;;;2.97;;
4309;SDS011;2168;53.576;9.980;2023-06-26T10:47:39;2.30;;;2.30;;
4309;SDS011;2168;53.576;9.980;2023-06-26T10:50:18;2.40;;;2.40;;
4309;SDS011;2168;53.576;9.980;2023-06-26T10:53:06;1.90;;;1.90;;
4309;SDS011;2168;53.576;9.980;2023-06-26T10:55:31;1.97;;;1.97;;
4309;SDS011;2168;53.576;9.980;2023-06-26T10:57:56;2.10;;;2.10;;
4309;SDS011;2168;53.576;9.980;2023-06-26T11:00:22;2.20;;;2.20;;
4309;SDS011;2168;53.576;9.980;2023-06-26T11:02:47;1.60;;;1.60;;
4309;SDS011;2168;53.576;9.980;2023-06-26T11:05:13;1.43;;;1.43;;
4309;SDS011;2168;53.576;9.980;2023-06-26T11:08:07;1.10;;;1.10;;
4309;SDS011;2168;53.576;9.980;2023-06-26T11:10:51;1.00;;;1.00;;
4309;SDS011;2168;53.576;9.980;2023-06-26T11:13:17;0.60;;;0.60;;
4309;SDS011;2168;53.576;9.980;2023-06-26T11:15:43;0.80;;;0.80;;
4309;SDS011;2168;53.576;9.980;2023-06-26T11:18:09;0.90;;;0.90;;
4309;SDS011;2168;53.576;9.980;2023-06-26T11:20:35;0.90;;;0.90;;
4309;SDS011;2168;53.576;9.980;2023-06-26T11:23:00;0.90;;;0.90;;
4309;SDS011;2168;53.576;9.980;2023-06-26T11:25:25;0.70;;;0.70;;
4309;SDS011;2168;53.576;9.980;2023-06-26T11:27:52;0.80;;;0.80;;
4309;SDS011;2168;53.576;9.980;2023-06-26T11:30:24;0.80;;;0.80;;
4309;SDS011;2168;53.576;9.980;2023-06-26T11:32:50;1.00;;;1.00;;
4309;SDS011;2168;53.576;9.980;2023-06-26T11:35:22;0.90;;;0.90;;
4309;SDS011;2168;53.576;9.980;2023-06-26T11:37:48;1.10;;;1.10;;
4309;SDS011;2168;53.576;9.980;2023-06-26T11:40:16;1.00;;;1.00;;
4309;SDS011;2168;53.576;9.980;2023-06-26T11:42:42;0.90;;;0.90;;
4309;SDS011;2168;53.576;9.980;2023-06-26T11:45:07;1.10;;;1.10;;
4309;SDS011;2168;53.576;9.980;2023-06-26T11:47:33;1.20;;;1.20;;
4309;SDS011;2168;53.576;9.980;2023-06-26T11:49:58;1.20;;;1.20;;
4309;SDS011;2168;53.576;9.980;2023-06-26T11:52:24;1.20;;;1.20;;
4309;SDS011;2168;53.576;9.980;2023-06-26T11:54:49;1.53;;;1.53;;
4309;SDS011;2168;53.576;9.980;2023-06-26T11:57:14;1.50;;;1.50;;
4309;SDS011;2168;53.576;9.980;2023-06-26T11:59:40;1.43;;;1.43;;
4309;SDS011;2168;53.576;9.980;2023-06-26T12:02:06;1.60;;;1.60;;
4309;SDS011;2168;53.576;9.980;2023-06-26T12:04:31;1.40;;;1.40;;
4309;SDS011;2168;53.576;9.980;2023-06-26T12:06:57;1.50;;;1.50;;
4309;SDS011;2168;53.576;9.980;2023-06-26T12:09:22;1.13;;;1.13;;
4309;SDS011;2168;53.576;9.980;2023-06-26T12:11:48;1.40;;;1.40;;
4309;SDS011;2168;53.576;9.980;2023-06-26T12:14:13;1.37;;;1.37;;
4309;SDS011;2168;53.576;9.980;2023-06-26T12:16:39;1.30;;;1.30;;
4309;SDS011;2168;53.576;9.980;2023-06-26T12:19:06;1.20;;;1.20;;
4309;SDS011;2168;53.576;9.980;2023-06-26T12:24:03;1.90;;;1.90;;
4309;SDS011;2168;53.576;9.980;2023-06-26T12:26:28;1.80;;;1.80;;
4309;SDS011;2168;53.576;9.980;2023-06-26T12:29:00;1.43;;;1.43;;
4309;SDS011;2168;53.576;9.980;2023-06-26T12:31:26;1.73;;;1.73;;
4309;SDS011;2168;53.576;9.980;2023-06-26T12:33:51;1.70;;;1.70;;
4309;SDS011;2168;53.576;9.980;2023-06-26T12:36:17;1.63;;;1.63;;
4309;SDS011;2168;53.576;9.980;2023-06-26T12:38:44;1.53;;;1.53;;
4309;SDS011;2168;53.576;9.980;2023-06-26T12:41:13;1.50;;;1.50;;
4309;SDS011;2168;53.576;9.980;2023-06-26T12:43:39;1.83;;;1.83;;
4309;SDS011;2168;53.576;9.980;2023-06-26T12:46:05;1.93;;;1.93;;
4309;SDS011;2168;53.576;9.980;2023-06-26T12:48:39;2.30;;;2.30;;
4309;SDS011;2168;53.576;9.980;2023-06-26T12:51:16;2.60;;;2.60;;
4309;SDS011;2168;53.576;9.980;2023-06-26T12:53:42;2.67;;;2.67;;
4309;SDS011;2168;53.576;9.980;2023-06-26T12:56:08;2.87;;;2.87;;
4309;SDS011;2168;53.576;9.980;2023-06-26T12:58:33;2.80;;;2.80;;
4309;SDS011;2168;53.576;9.980;2023-06-26T13:00:59;2.90;;;2.90;;
4309;SDS011;2168;53.576;9.980;2023-06-26T13:03:24;2.90;;;2.90;;
4309;SDS011;2168;53.576;9.980;2023-06-26T13:05:49;2.80;;;2.80;;
4309;SDS011;2168;53.576;9.980;2023-06-26T13:08:14;2.70;;;2.70;;
4309;SDS011;2168;53.576;9.980;2023-06-26T13:10:42;2.60;;;2.60;;
4309;SDS011;2168;53.576;9.980;2023-06-26T13:13:07;3.10;;;3.10;;
4309;SDS011;2168;53.576;9.980;2023-06-26T13:15:33;2.60;;;2.60;;
4309;SDS011;2168;53.576;9.980;2023-06-26T13:17:58;3.07;;;3.07;;
4309;SDS011;2168;53.576;9.980;2023-06-26T13:20:23;2.67;;;2.67;;
4309;SDS011;2168;53.576;9.980;2023-06-26T13:22:49;2.80;;;2.80;;
4309;SDS011;2168;53.576;9.980;2023-06-26T13:25:14;2.40;;;2.40;;
4309;SDS011;2168;53.576;9.980;2023-06-26T13:27:39;2.70;;;2.70;;
4309;SDS011;2168;53.576;9.980;2023-06-26T13:30:04;2.90;;;2.90;;
4309;SDS011;2168;53.576;9.980;2023-06-26T13:32:30;2.73;;;2.73;;
4309;SDS011;2168;53.576;9.980;2023-06-26T13:34:55;2.60;;;2.60;;
4309;SDS011;2168;53.576;9.980;2023-06-26T13:37:20;2.67;;;2.67;;
4309;SDS011;2168;53.576;9.980;2023-06-26T13:39:45;2.50;;;2.50;;
4309;SDS011;2168;53.576;9.980;2023-06-26T13:42:15;2.50;;;2.50;;
4309;SDS011;2168;53.576;9.980;2023-06-26T13:44:40;2.60;;;2.60;;
4309;SDS011;2168;53.576;9.980;2023-06-26T13:47:05;3.00;;;3.00;;
4309;SDS011;2168;53.576;9.980;2023-06-26T13:49:30;2.83;;;2.83;;
4309;SDS011;2168;53.576;9.980;2023-06-26T13:51:55;2.80;;;2.80;;
4309;SDS011;2168;53.576;9.980;2023-06-26T13:54:21;2.73;;;2.73;;
4309;SDS011;2168;53.576;9.980;2023-06-26T13:56:46;2.87;;;2.87;;
4309;SDS011;2168;53.576;9.980;2023-06-26T13:59:11;2.90;;;2.90;;
4309;SDS011;2168;53.576;9.980;2023-06-26T14:01:36;3.00;;;3.00;;
4309;SDS011;2168;53.576;9.980;2023-06-26T14:04:03;2.83;;;2.83;;
4309;SDS011;2168;53.576;9.980;2023-06-26T14:06:28;3.07;;;3.07;;
4309;SDS011;2168;53.576;9.980;2023-06-26T14:08:55;2.73;;;2.73;;
4309;SDS011;2168;53.576;9.980;2023-06-26T14:11:20;2.57;;;2.57;;
4309;SDS011;2168;53.576;9.980;2023-06-26T14:13:46;2.90;;;2.90;;
4309;SDS011;2168;53.576;9.980;2023-06-26T14:16:12;2.77;;;2.77;;
4309;SDS011;2168;53.576;9.980;2023-06-26T14:18:37;2.90;;;2.90;;
4309;SDS011;2168;53.576;9.980;2023-06-26T14:21:03;2.60;;;2.60;;
4309;SDS011;2168;53.576;9.980;2023-06-26T14:23:29;3.20;;;3.20;;
4309;SDS011;2168;53.576;9.980;2023-06-26T14:25:54;2.70;;;2.70;;
4309;SDS011;2168;53.576;9.980;2023-06-26T14:28:19;3.00;;;3.00;;
4309;SDS011;2168;53.576;9.980;2023-06-26T14:30:44;2.90;;;2.90;;
4309;SDS011;2168;53.576;9.980;2023-06-26T14:33:09;3.00;;;3.00;;
4309;SDS011;2168;53.576;9.980;2023-06-26T14:35:34;3.20;;;3.20;;
4309;SDS011;2168;53.576;9.980;2023-06-26T14:38:00;2.80;;;2.80;;
4309;SDS011;2168;53.576;9.980;2023-06-26T14:40:25;2.90;;;2.90;;
4309;SDS011;2168;53.576;9.980;2023-06-26T14:42:50;3.23;;;3.23;;
4309;SDS011;2168;53.576;9.980;2023-06-26T14:45:16;2.97;;;2.97;;
4309;SDS011;2168;53.576;9.980;2023-06-26T14:47:41;3.30;;;3.30;;
4309;SDS011;2168;53.576;9.980;2023-06-26T14:50:07;3.30;;;3.30;;
4309;SDS011;2168;53.576;9.980;2023-06-26T14:52:32;3.23;;;3.23;;
4309;SDS011;2168;53.576;9.980;2023-06-26T14:54:57;3.10;;;3.10;;
4309;SDS011;2168;53.576;9.980;2023-06-26T14:57:22;3.40;;;3.40;;
4309;SDS011;2168;53.576;9.980;2023-06-26T14:59:48;3.47;;;3.47;;
4309;SDS011;2168;53.576;9.980;2023-06-26T15:02:13;3.33;;;3.33;;
4309;SDS011;2168;53.576;9.980;2023-06-26T15:04:38;3.23;;;3.23;;
4309;SDS011;2168;53.576;9.980;2023-06-26T15:07:03;3.10;;;3.10;;
4309;SDS011;2168;53.576;9.980;2023-06-26T15:09:29;3.27;;;3.27;;
4309;SDS011;2168;53.576;9.980;2023-06-26T15:11:54;3.00;;;3.00;;
4309;SDS011;2168;53.576;9.980;2023-06-26T15:14:19;3.17;;;3.17;;
4309;SDS011;2168;53.576;9.980;2023-06-26T15:16:44;2.93;;;2.93;;
4309;SDS011;2168;53.576;9.980;2023-06-26T15:19:09;3.03;;;3.03;;
4309;SDS011;2168;53.576;9.980;2023-06-26T15:21:35;2.60;;;2.60;;